Latest Weather Observations for Richmond

IDQ60801

Issued at 4:32 am EST Friday 24 November 2017 (issued every 30 minutes, with the page automatically refreshed every 10 minutes)

About weather observations | Map of weather stations | Latest weather observations for QLD | Other Formats
Station Details ID: 030161 Name: RICHMOND AIRPORT Lat: -20.70 Lon: 143.12 Height: 206.3 m
Data from the previous 72 hours. | See also: Recent months at Richmond
Date/Time
EST
Temp
°C
App
Temp
°C
Dew
Point
°C
Rel
Hum
%
Delta-T
°C
Wind Press
QNH
hPa
Press
MSL
hPa
Rain since
9am
mm
Dir  Spd
km/h
Gust
km/h
Spd
kts
Gust
kts
24/04:30am 21.2 24.5 19.1 88 1.3 CALM 0 0 0 0 1009.6 1008.1 5.2
24/04:00am 22.0 23.7 19.4 85 1.7 NE 9 11 5 6 1009.1 1007.7 5.2
24/03:30am 21.9 23.6 19.3 85 1.7 NE 9 11 5 6 1008.8 1007.4 5.2
24/03:00am 22.0 23.8 19.5 86 1.6 NNE 9 13 5 7 1008.8 1007.4 5.2
24/02:30am 22.8 25.0 19.6 82 2.1 ENE 7 9 4 5 1008.7 1007.3 5.2
24/02:00am 23.1 25.3 19.7 81 2.2 ENE 7 9 4 5 1009.0 1007.6 5.2
24/01:30am 23.2 25.6 20.0 82 2.1 ENE 7 9 4 5 1009.0 1007.6 5.2
24/01:00am 23.3 25.3 19.9 81 2.2 NE 9 13 5 7 1009.0 1007.6 5.2
24/12:30am 23.6 25.4 19.5 78 2.6 ENE 9 11 5 6 1009.2 1007.8 5.2
24/12:00am 24.2 25.7 19.7 76 2.9 ENE 11 17 6 9 1009.5 1008.0 5.2
 
Date/Time
EST
Temp
°C
App
Temp
°C
Dew
Point
°C
Rel
Hum
%
Delta-T
°C
Wind Press
QNH
hPa
Press
MSL
hPa
Rain since
9am
mm
Dir  Spd
km/h
Gust
km/h
Spd
kts
Gust
kts
23/11:30pm 24.2 24.9 19.7 76 2.9 NE 15 20 8 11 1009.3 1007.9 5.2
23/11:00pm 24.6 26.3 20.1 76 2.9 ENE 11 15 6 8 1009.3 1007.9 5.0
23/10:30pm 24.8 26.0 19.8 74 3.3 ENE 13 22 7 12 1009.1 1007.7 5.0
23/10:00pm 24.8 25.1 19.6 73 3.4 NE 17 24 9 13 1008.8 1007.4 5.0
23/09:30pm 25.1 26.2 19.7 72 3.5 ENE 13 19 7 10 1008.8 1007.4 5.0
23/09:00pm 25.4 25.8 19.8 71 3.7 ENE 17 28 9 15 1008.6 1007.2 5.0
23/08:30pm 26.3 26.5 19.4 66 4.5 ENE 17 28 9 15 1008.5 1007.1 5.0
23/08:00pm 27.3 28.0 20.4 66 4.6 E 17 28 9 15 1008.0 1006.6 5.0
23/07:30pm 27.0 29.8 21.5 72 3.7 E 9 15 5 8 1007.7 1006.2 5.0
23/07:00pm 28.2 30.9 20.7 63 5.0 ENE 7 9 4 5 1007.2 1005.7 5.0
23/06:30pm 28.6 31.5 20.6 62 5.3 NNE 6 7 3 4 1006.9 1005.4 5.0
23/06:00pm 29.2 31.5 18.6 52 6.9 E 4 6 2 3 1006.7 1005.2 5.0
23/05:30pm 29.3 31.4 19.3 55 6.5 E 7 9 4 5 1006.5 1005.0 5.0
23/05:00pm 28.8 30.0 20.0 59 5.8 ESE 13 15 7 8 1006.1 1004.6 5.0
23/04:30pm 27.7 29.8 21.7 70 4.0 E 13 17 7 9 1006.1 1004.6 5.0
23/04:00pm 25.1 25.9 21.4 80 2.5 ESE 19 24 10 13 1006.3 1004.8 5.0
23/03:48pm 24.8 25.4 22.1 85 1.8 SE 22 30 12 16 1006.2 1004.7 5.0
23/03:30pm 23.2 22.7 21.5 90 1.1 SSE 26 37 14 20 1007.0 1005.5 4.0
23/03:25pm 23.0 20.4 20.7 87 1.5 S 35 63 19 34 1007.3 1005.8 2.6
23/03:20pm 23.2 18.7 20.0 82 2.1 S 43 63 23 34 1007.5 1006.0 1.4
23/03:13pm 27.0 24.5 20.1 66 4.5 SSW 33 57 18 31 1006.7 1005.2 0.0
23/03:06pm 31.7 30.4 16.8 40 9.5 NW 19 50 10 27 1006.3 1004.8 0.0
23/03:00pm 32.9 31.7 14.0 32 11.6 NW 13 24 7 13 1005.9 1004.4 0.0
23/02:30pm 34.3 33.8 13.7 29 12.7 N 9 17 5 9 1006.0 1004.5 0.0
23/02:00pm 34.4 34.2 14.8 30 12.3 WNW 9 19 5 10 1006.3 1004.8 0.0
23/01:30pm 34.3 34.8 16.6 34 11.3 SW 9 15 5 8 1007.0 1005.5 0.0
23/01:00pm 34.1 34.4 16.0 34 11.5 NNW 9 19 5 10 1007.6 1006.1 0.0
23/12:30pm 31.9 31.1 16.2 38 9.9 N 15 24 8 13 1008.2 1006.8 0.0
23/12:00pm 32.0 31.0 16.7 40 9.8 N 17 28 9 15 1008.8 1007.4 0.0
23/11:30am 31.1 30.4 17.4 44 8.8 NNW 17 30 9 16 1009.2 1007.8 0.0
23/11:00am 31.2 30.7 17.9 45 8.6 N 17 28 9 15 1009.6 1008.1 0.0
23/10:30am 30.6 29.6 18.0 47 8.1 N 20 32 11 17 1010.0 1008.5 0.0
23/10:00am 29.3 28.2 17.8 50 7.4 N 20 33 11 18 1010.1 1008.6 0.0
23/09:30am 29.5 28.1 18.0 50 7.4 N 22 32 12 17 1010.4 1008.9 0.0
23/09:00am 28.2 27.3 17.7 53 6.7 NNW 19 28 10 15 1010.5 1009.0 0.0
23/08:30am 27.0 25.9 17.8 57 5.9 NNW 20 28 11 15 1010.4 1008.9 0.0
23/08:00am 26.3 25.8 17.9 60 5.3 N 17 28 9 15 1010.0 1008.5 0.0
23/07:30am 24.0 25.0 18.6 72 3.4 NNE 11 15 6 8 1010.0 1008.5 0.0
23/07:00am 22.6 24.1 18.8 79 2.4 NE 9 13 5 7 1009.7 1008.2 0.0
23/06:30am 21.7 23.0 18.5 82 2.0 NNE 9 11 5 6 1009.5 1008.0 0.0
23/06:00am 20.7 22.4 18.1 85 1.6 ENE 6 6 3 3 1009.1 1007.7 0.0
23/05:30am 20.7 22.1 17.9 84 1.7 ENE 7 11 4 6 1008.5 1007.1 0.0
23/05:00am 20.9 22.3 17.9 83 1.9 E 7 9 4 5 1008.3 1006.9 0.0
23/04:30am 21.4 23.0 18.2 82 2.0 ENE 7 11 4 6 1008.1 1006.7 0.0
23/04:00am 21.6 22.7 18.0 80 2.3 E 9 13 5 7 1007.9 1006.5 0.0
23/03:30am 22.0 23.1 18.0 78 2.5 E 9 13 5 7 1007.7 1006.2 0.0
23/03:00am 22.3 23.1 18.1 77 2.6 E 11 15 6 8 1007.5 1006.0 0.0
23/02:30am 22.6 23.7 17.9 75 3.0 ENE 9 15 5 8 1007.3 1005.8 0.0
23/02:00am 22.9 22.9 18.0 74 3.1 E 15 20 8 11 1007.2 1005.7 0.0
23/01:30am 23.3 22.9 18.0 72 3.3 E 17 24 9 13 1007.2 1005.7 0.0
23/01:00am 23.7 22.0 18.1 71 3.5 E 24 30 13 16 1007.2 1005.7 0.0
23/12:30am 24.0 23.2 18.4 71 3.6 E 20 30 11 16 1007.8 1006.4 0.0
23/12:00am 24.0 23.2 18.4 71 3.6 E 20 26 11 14 1008.0 1006.6 0.0
 
Date/Time
EST
Temp
°C
App
Temp
°C
Dew
Point
°C
Rel
Hum
%
Delta-T
°C
Wind Press
QNH
hPa
Press
MSL
hPa
Rain since
9am
mm
Dir  Spd
km/h
Gust
km/h
Spd
kts
Gust
kts
22/11:30pm 24.2 23.5 18.6 71 3.6 E 20 24 11 13 1008.3 1006.9 0.0
22/11:00pm 23.9 23.1 18.5 72 3.4 E 20 24 11 13 1008.3 1006.9 0.0
22/10:30pm 24.2 23.1 18.6 71 3.6 ESE 22 28 12 15 1008.3 1006.9 0.0
22/10:00pm 24.5 23.1 18.7 70 3.7 E 24 32 13 17 1008.0 1006.6 0.0
22/09:30pm 24.9 23.7 18.4 67 4.1 E 22 33 12 18 1007.9 1006.5 0.0
22/09:00pm 24.4 23.6 17.9 67 4.1 E 19 24 10 13 1007.8 1006.4 0.0
22/08:30pm 24.7 23.6 17.7 65 4.4 E 20 32 11 17 1007.4 1005.9 0.0
22/08:00pm 24.4 22.7 17.1 63 4.6 E 22 30 12 16 1007.2 1005.7 0.0
22/07:30pm 24.8 21.3 17.5 64 4.6 ESE 32 39 17 21 1006.4 1004.9 0.0
22/07:00pm 24.9 19.2 17.6 64 4.6 SE 44 57 24 31 1006.4 1004.9 0.0
22/06:40pm 25.5 19.0 18.4 65 4.5 SSE 50 69 27 37 1006.1 1004.6 0.0
22/06:30pm 26.8 23.0 17.3 56 6.0 S 33 63 18 34 1005.9 1004.4 0.0
22/06:29pm 27.0 23.7 16.9 54 6.3 S 30 63 16 34 1005.9 1004.4 0.0
22/06:26pm 28.3 27.0 15.9 47 7.7 S 17 50 9 27 1005.9 1004.4 0.0
22/06:00pm 31.9 31.6 15.4 37 10.3 SW 11 15 6 8 1005.3 1003.8 0.0
22/05:30pm 31.9 31.3 14.5 34 10.7 W 11 17 6 9 1005.5 1004.0 0.0
22/05:00pm 32.2 32.4 15.7 37 10.4 W 9 17 5 9 1005.2 1003.7 0.0
22/04:30pm 31.5 31.6 15.5 38 10.0 SSW 9 20 5 11 1005.3 1003.8 0.0
22/04:00pm 31.2 31.1 16.0 40 9.6 W 11 19 6 10 1005.6 1004.1 0.0
22/03:30pm 31.0 30.1 15.8 40 9.5 SSW 15 22 8 12 1006.0 1004.5 0.0
22/03:00pm 30.7 30.3 16.3 42 9.1 W 13 24 7 13 1006.3 1004.8 0.0
22/02:30pm 30.3 30.3 16.3 42 8.8 S 11 17 6 9 1006.8 1005.3 0.0
22/02:00pm 30.4 31.2 16.4 43 8.8 WSW 7 13 4 7 1007.3 1005.8 0.0
22/01:30pm 30.3 30.1 16.7 44 8.6 WNW 13 20 7 11 1007.8 1006.4 0.0
22/01:00pm 29.9 32.1 17.4 47 8.0 WNW 2 11 1 6 1008.2 1006.8 0.0
22/12:30pm 29.6 30.3 17.1 47 7.9 S 9 15 5 8 1008.7 1007.3 0.0
22/12:00pm 29.2 29.7 17.4 49 7.5 SSW 11 13 6 7 1009.3 1007.9 0.0
22/11:30am 27.7 28.5 17.3 53 6.6 WSW 9 13 5 7 1009.8 1008.3 0.0
22/11:00am 27.7 28.3 16.9 51 6.8 SSE 9 17 5 9 1010.0 1008.5 0.0
22/10:30am 28.3 29.1 18.1 54 6.5 SE 11 17 6 9 1009.9 1008.4 0.0
22/10:00am 26.6 26.6 17.1 56 6.0 ENE 13 22 7 12 1009.9 1008.4 0.0
22/09:30am 26.0 26.1 17.4 59 5.4 NE 13 20 7 11 1010.1 1008.6 0.0
22/09:00am 25.7 25.0 17.4 60 5.2 E 17 24 9 13 1010.2 1008.7 14.2
22/08:30am 25.1 25.2 18.3 66 4.3 NE 15 19 8 10 1010.3 1008.8 14.2
22/08:00am 23.7 24.5 18.1 71 3.5 NE 11 15 6 8 1010.3 1008.8 14.2
22/07:30am 22.8 23.9 18.8 78 2.5 ENE 11 13 6 7 1010.2 1008.7 14.2
22/07:00am 21.3 22.3 18.7 85 1.6 NE 11 15 6 8 1010.1 1008.6 14.2
22/06:30am 20.3 21.8 18.8 91 0.9 ENE 9 13 5 7 1009.9 1008.4 14.2
22/06:00am 19.6 21.0 18.6 94 0.6 ENE 9 11 5 6 1009.7 1008.2 14.2
22/05:30am 19.5 21.3 18.8 96 0.4 ENE 7 9 4 5 1009.5 1008.0 14.2
22/05:00am 18.9 20.5 18.2 96 0.4 E 7 9 4 5 1009.2 1007.8 14.2
22/04:30am 18.9 20.1 18.2 96 0.4 E 9 11 5 6 1008.9 1007.5 14.2
22/04:00am 19.0 19.9 18.3 96 0.4 E 11 13 6 7 1008.9 1007.5 14.2
22/03:30am 19.0 19.9 18.3 96 0.4 ESE 11 11 6 6 1009.0 1007.6 14.2
22/03:00am 18.9 20.1 18.2 96 0.4 ESE 9 13 5 7 1008.8 1007.4 14.2
22/02:30am 19.2 21.1 18.5 96 0.4 SE 6 7 3 4 1009.0 1007.6 14.2
22/02:23am 19.3 21.6 18.6 96 0.4 SE 4 7 2 4 1009.1 1007.7 14.2
22/02:03am 19.0 21.9 18.2 95 0.5 CALM 0 0 0 0 1009.1 1007.7 14.2
22/02:00am 19.0 21.9 18.3 96 0.4 CALM 0 0 0 0 1009.1 1007.7 14.2
22/01:37am 19.0 20.2 18.2 95 0.5 SE 9 9 5 5 1009.2 1007.8 14.2
22/01:30am 19.0 20.6 18.2 95 0.5 SE 7 9 4 5 1009.3 1007.9 14.2
22/01:14am 19.2 21.0 18.4 95 0.5 SE 6 7 3 4 1009.2 1007.8 14.2
22/01:00am 19.4 21.6 18.4 94 0.6 SE 4 6 2 3 1009.3 1007.9 14.2
22/12:30am 19.8 21.6 18.8 94 0.6 SE 7 9 4 5 1009.3 1007.9 14.2
22/12:00am 19.9 21.4 18.9 94 0.6 SE 9 9 5 5 1009.8 1008.3 14.2
 
Date/Time
EST
Temp
°C
App
Temp
°C
Dew
Point
°C
Rel
Hum
%
Delta-T
°C
Wind Press
QNH
hPa
Press
MSL
hPa
Rain since
9am
mm
Dir  Spd
km/h
Gust
km/h
Spd
kts
Gust
kts
21/11:30pm 20.2 21.7 19.0 93 0.8 SE 9 9 5 5 1010.1 1008.6 14.2
21/11:00pm 20.4 23.3 19.1 92 0.8 SE 2 6 1 3 1010.2 1008.7 14.2
21/10:30pm 20.2 21.9 18.5 90 1.1 ESE 7 9 4 5 1010.1 1008.6 14.2
21/10:00pm 20.9 22.6 18.5 86 1.5 ESE 7 9 4 5 1010.1 1008.6 14.2
21/09:30pm 21.1 21.7 18.5 85 1.6 ESE 13 15 7 8 1009.5 1008.0 14.2
21/09:00pm 20.7 22.4 18.6 88 1.3 ENE 7 9 4 5 1009.1 1007.7 14.2
21/08:30pm 20.9 22.3 18.7 87 1.4 ENE 9 13 5 7 1009.0 1007.6 14.2
21/08:00pm 21.0 22.8 18.8 87 1.4 ENE 7 11 4 6 1009.1 1007.7 14.2
21/07:30pm 21.0 22.4 18.6 86 1.5 NE 9 11 5 6 1008.6 1007.2 14.2
21/07:00pm 21.4 22.4 18.6 84 1.8 ENE 11 15 6 8 1008.2 1006.8 14.2
21/06:30pm 21.9 21.9 18.9 83 1.9 ENE 17 28 9 15 1007.8 1006.4 14.2
21/06:00pm 22.0 21.3 18.6 81 2.2 ENE 20 32 11 17 1007.7 1006.2 14.2
21/05:30pm 21.5 20.5 18.9 85 1.7 NE 22 33 12 18 1007.0 1005.5 14.2
21/05:00pm 21.7 21.1 19.8 89 1.2 ENE 22 35 12 19 1006.1 1004.6 14.2
21/04:30pm 21.3 19.1 20.3 94 0.6 E 32 43 17 23 1007.2 1005.7 14.2
21/04:00pm 20.7 20.1 20.4 98 0.2 ESE 24 32 13 17 1008.7 1007.3 13.0
21/03:56pm 20.7 19.3 20.4 98 0.2 SE 28 33 15 18 1009.0 1007.6 13.0
21/03:51pm 20.7 19.3 20.4 98 0.2 SE 28 35 15 19 1009.2 1007.8 12.8
21/03:35pm 19.9 16.3 19.4 97 0.3 S 37 48 20 26 1010.1 1008.6 11.6
21/03:30pm 20.2 17.4 19.5 96 0.4 SSW 33 48 18 26 1010.9 1009.4 10.0
21/03:27pm 20.4 18.8 20.1 98 0.2 SSW 28 43 15 23 1011.1 1009.6 9.4
21/03:25pm 20.4 19.6 20.1 98 0.2 S 24 35 13 19 1011.0 1009.5 9.2
21/03:12pm 20.0 17.3 19.7 98 0.2 SSE 33 44 18 24 1008.9 1007.5 8.2
21/03:02pm 19.5 14.5 18.8 96 0.4 SSE 43 61 23 33 1008.7 1007.3 5.2
21/03:00pm 19.2 13.4 18.4 95 0.5 SSE 46 61 25 33 1008.8 1007.4 4.4
21/02:51pm 20.2 14.6 18.7 91 0.9 SSE 46 63 25 34 1007.9 1006.5 0.4
21/02:48pm 20.4 14.8 17.4 83 1.9 SSE 43 63 23 34 1008.2 1006.8 0.2
21/02:42pm 24.2 20.4 17.2 65 4.4 SE 33 44 18 24 1007.6 1006.1 0.0
21/02:31pm 25.2 19.2 16.9 60 5.2 ESE 44 63 24 34 1006.4 1004.9 0.0
21/02:30pm 24.9 18.4 16.6 60 5.1 ESE 46 63 25 34 1006.4 1004.9 0.0
21/02:14pm 29.0 25.8 15.2 43 8.5 E 26 56 14 30 1006.0 1004.5 0.0
21/02:11pm 30.5 28.1 13.7 35 10.2 ENE 19 50 10 27 1005.7 1004.2 0.0
21/02:00pm 36.4 33.3 14.4 27 13.8 NW 24 35 13 19 1005.4 1003.9 0.0
21/01:30pm 35.7 31.2 13.8 27 13.5 WNW 30 43 16 23 1006.1 1004.6 0.0
21/01:00pm 34.3 31.5 14.2 29 12.5 NW 22 35 12 19 1007.1 1005.6 0.0
21/12:30pm 34.7 32.6 16.1 33 11.8 NW 22 32 12 17 1007.9 1006.5 0.0
21/12:00pm 33.0 31.0 15.0 33 11.2 NNW 19 30 10 16 1008.8 1007.4 0.0
21/11:30am 33.2 31.6 16.5 36 10.6 NW 20 32 11 17 1009.7 1008.2 0.0
21/11:00am 32.4 30.4 15.4 36 10.6 WNW 20 32 11 17 1010.2 1008.7 0.0
21/10:30am 33.2 31.8 17.0 38 10.4 NW 20 33 11 18 1010.1 1008.6 0.0
21/10:00am 32.0 29.9 16.3 39 9.9 N 22 33 12 18 1010.7 1009.2 0.0
21/09:30am 30.8 29.1 17.1 43 8.7 NNW 22 30 12 16 1010.9 1009.4 0.0
21/09:00am 29.8 28.2 16.6 45 8.3 N 20 28 11 15 1011.2 1009.7 0.0
21/08:30am 28.9 27.6 16.8 48 7.6 N 19 24 10 13 1011.2 1009.7 0.0
21/08:00am 28.4 28.4 17.3 51 7.0 NNE 13 19 7 10 1011.0 1009.5 0.0
21/07:30am 27.0 25.7 17.2 55 6.2 NNE 20 24 11 13 1010.7 1009.2 0.0
21/07:00am 25.9 26.3 17.3 59 5.4 NNE 11 15 6 8 1010.5 1009.0 0.0
21/06:30am 23.8 24.8 16.8 65 4.3 ENE 7 11 4 6 1010.4 1008.9 0.0
21/06:00am 22.1 22.9 16.4 70 3.5 ENE 7 9 4 5 1010.0 1008.5 0.0
21/05:30am 22.3 23.0 16.1 68 3.8 NE 7 9 4 5 1009.6 1008.1 0.0
21/05:00am 22.3 22.6 16.1 68 3.8 NE 9 9 5 5 1009.3 1007.9 0.0

Other Formats:

Comma delimited format used in spreadsheet applications
http://www.bom.gov.au/fwo/IDQ60801/IDQ60801.94341.axf

JavaScript Object Notation format (JSON) in row-major order
http://www.bom.gov.au/fwo/IDQ60801/IDQ60801.94341.json